createdAt,value
2022-12-13T00:01:57.603Z,8.20
2022-12-13T00:07:05.176Z,9.00
2022-12-13T00:12:12.611Z,10.13
2022-12-13T00:17:20.654Z,8.53
2022-12-13T00:22:28.555Z,8.57
2022-12-13T00:27:36.855Z,8.70
2022-12-13T00:32:44.215Z,8.10
2022-12-13T00:37:51.543Z,8.00
2022-12-13T00:42:59.192Z,7.57
2022-12-13T00:48:08.492Z,8.43
2022-12-13T00:53:16.005Z,9.23
2022-12-13T00:58:24.272Z,7.97
2022-12-13T01:03:33.408Z,8.00
2022-12-13T01:08:41.330Z,8.37
2022-12-13T01:13:49.371Z,6.93
2022-12-13T01:18:58.836Z,7.77
2022-12-13T01:24:09.319Z,8.43
2022-12-13T01:29:17.878Z,9.40
2022-12-13T01:34:26.178Z,7.97
2022-12-13T01:39:38.190Z,7.53
2022-12-13T01:45:05.265Z,6.83
2022-12-13T01:50:18.497Z,7.83
2022-12-13T01:55:26.556Z,5.67
2022-12-13T02:00:36.091Z,6.27
2022-12-13T02:06:05.052Z,7.27
2022-12-13T02:11:13.386Z,6.93
2022-12-13T02:16:43.731Z,6.60
2022-12-13T02:22:11.556Z,7.13
2022-12-13T02:27:30.592Z,7.00
2022-12-13T02:32:53.501Z,7.50
2022-12-13T02:38:24.431Z,6.13
2022-12-13T02:43:33.880Z,6.87
2022-12-13T02:48:41.517Z,6.10
2022-12-13T02:53:49.269Z,6.03
2022-12-13T02:58:56.621Z,11.00
2022-12-13T03:04:16.335Z,6.40
2022-12-13T03:09:30.698Z,6.73
2022-12-13T03:14:39.055Z,6.50
2022-12-13T03:19:46.563Z,6.40
2022-12-13T03:24:54.184Z,7.13
2022-12-13T03:30:02.855Z,7.10
2022-12-13T03:35:21.708Z,6.43
2022-12-13T03:40:22.098Z,7.03
2022-12-13T03:45:29.798Z,7.73
2022-12-13T03:50:37.131Z,6.43
2022-12-13T03:55:45.087Z,6.20
2022-12-13T04:00:53.113Z,6.20
2022-12-13T04:06:01.448Z,5.90
2022-12-13T04:11:27.025Z,5.87
2022-12-13T04:16:34.681Z,5.97
2022-12-13T04:21:42.725Z,6.87
2022-12-13T04:26:50.963Z,6.70
2022-12-13T04:31:58.988Z,5.90
2022-12-13T04:37:08.074Z,6.67
2022-12-13T04:42:15.752Z,5.93
2022-12-13T04:47:23.774Z,7.30
2022-12-13T04:52:31.149Z,6.60
2022-12-13T04:57:39.943Z,6.17
2022-12-13T05:02:48.038Z,6.40
2022-12-13T05:07:55.811Z,7.30
2022-12-13T05:13:03.531Z,6.13
2022-12-13T05:18:11.997Z,7.30
2022-12-13T05:23:22.360Z,6.57
2022-12-13T05:28:30.121Z,6.07
2022-12-13T05:33:38.762Z,4.93
2022-12-13T05:38:46.689Z,4.33
2022-12-13T05:43:54.196Z,6.67
2022-12-13T05:49:02.531Z,8.20
2022-12-13T05:54:10.524Z,7.80
2022-12-13T05:59:18.176Z,7.27
2022-12-13T06:04:25.542Z,8.07
2022-12-13T06:09:33.056Z,8.17
2022-12-13T06:14:42.179Z,9.57
2022-12-13T06:19:50.103Z,9.57
2022-12-13T06:24:57.377Z,9.87
2022-12-13T06:30:05.475Z,9.53
2022-12-13T06:35:28.420Z,7.03
2022-12-13T06:40:23.732Z,9.30
2022-12-13T06:45:31.178Z,10.53
2022-12-13T06:50:39.188Z,10.57
2022-12-13T06:55:47.215Z,9.83
2022-12-13T07:01:03.928Z,9.87
2022-12-13T07:06:17.118Z,7.78
2022-12-13T07:11:30.251Z,17.77
2022-12-13T07:16:37.724Z,12.70
2022-12-13T07:21:45.243Z,13.13
2022-12-13T07:26:53.234Z,12.20
2022-12-13T07:32:02.254Z,12.23
2022-12-13T07:37:30.309Z,17.40
2022-12-13T07:42:22.216Z,10.07
2022-12-13T07:47:33.387Z,11.20
2022-12-13T07:52:44.815Z,11.10
2022-12-13T07:57:54.770Z,15.60
2022-12-13T08:03:02.469Z,14.07
2022-12-13T08:08:11.978Z,11.93
2022-12-13T08:13:26.954Z,13.50
2022-12-13T08:18:35.136Z,11.50
2022-12-13T08:23:43.124Z,10.00
2022-12-13T08:28:51.088Z,9.23
2022-12-13T08:33:59.070Z,10.83
2022-12-13T08:39:07.403Z,9.67
2022-12-13T08:44:14.851Z,6.60
2022-12-13T08:49:22.388Z,9.13
2022-12-13T08:54:31.262Z,7.73
2022-12-13T08:59:39.250Z,9.13
2022-12-13T09:04:47.121Z,8.77
2022-12-13T09:09:55.324Z,7.27
2022-12-13T09:15:02.797Z,7.53
2022-12-13T09:20:28.616Z,7.10
2022-12-13T09:25:23.986Z,7.43
2022-12-13T09:30:32.152Z,7.77
2022-12-13T09:35:39.982Z,7.27
2022-12-13T09:40:49.471Z,7.70
2022-12-13T09:46:01.093Z,7.53
2022-12-13T09:51:26.301Z,10.07
2022-12-13T09:56:20.736Z,9.03
2022-12-13T10:01:28.577Z,8.07
2022-12-13T10:06:37.653Z,6.83
2022-12-13T10:11:54.169Z,6.70
2022-12-13T10:17:02.697Z,5.90
2022-12-13T10:22:15.684Z,6.70
2022-12-13T10:27:35.593Z,6.40
2022-12-13T10:33:01.233Z,5.93
2022-12-13T10:38:21.013Z,6.30
2022-12-13T10:43:31.681Z,6.57
2022-12-13T10:48:41.915Z,6.20
2022-12-13T10:53:58.338Z,5.77
2022-12-13T10:59:21.351Z,6.10
2022-12-13T11:04:35.533Z,7.17
2022-12-13T11:09:43.618Z,6.57
2022-12-13T11:15:07.531Z,5.53
2022-12-13T11:20:21.116Z,6.73
2022-12-13T11:25:31.854Z,5.67
2022-12-13T11:30:51.593Z,6.53
2022-12-13T11:36:27.524Z,6.80
2022-12-13T11:41:42.130Z,6.80
2022-12-13T11:46:59.678Z,7.73
2022-12-13T11:52:31.728Z,7.50
2022-12-13T11:57:59.622Z,6.70
2022-12-13T12:03:20.202Z,5.87
2022-12-13T12:08:45.523Z,7.33
2022-12-13T12:13:56.366Z,6.03
2022-12-13T12:19:05.182Z,7.53
2022-12-13T12:24:40.881Z,6.40
2022-12-13T12:30:22.525Z,5.90
2022-12-13T12:35:55.644Z,4.22
2022-12-13T12:41:26.181Z,5.80
2022-12-13T12:47:09.186Z,6.07
2022-12-13T12:52:21.452Z,4.87
2022-12-13T12:57:41.236Z,5.10
2022-12-13T13:03:23.246Z,5.97
2022-12-13T13:08:56.258Z,5.50
2022-12-13T13:14:16.806Z,5.07
2022-12-13T13:24:32.197Z,4.08
2022-12-13T13:29:43.643Z,4.50
2022-12-13T13:34:51.244Z,4.30
2022-12-13T13:40:03.984Z,5.30
2022-12-13T13:45:19.663Z,5.23
2022-12-13T13:50:40.021Z,4.83
2022-12-13T13:56:01.832Z,4.80
2022-12-13T14:01:23.259Z,4.43
2022-12-13T14:07:01.171Z,4.30
2022-12-13T14:12:44.213Z,4.87
2022-12-13T14:18:25.908Z,5.83
2022-12-13T14:29:33.424Z,6.10
2022-12-13T14:34:41.785Z,5.83
2022-12-13T14:39:49.394Z,6.73
2022-12-13T14:44:57.206Z,7.03
2022-12-13T14:50:06.779Z,6.10
2022-12-13T14:55:26.227Z,6.40
2022-12-13T15:00:37.173Z,6.00
2022-12-13T15:05:51.367Z,5.47
2022-12-13T15:11:03.067Z,7.80
2022-12-13T15:16:20.277Z,11.20
2022-12-13T15:21:29.052Z,10.00
2022-12-13T15:26:38.915Z,10.20
2022-12-13T15:31:48.903Z,12.73
2022-12-13T15:36:57.668Z,13.70
2022-12-13T15:42:07.072Z,12.03
2022-12-13T15:47:28.394Z,10.37
2022-12-13T15:52:32.078Z,12.20
2022-12-13T15:57:54.809Z,11.50
2022-12-13T16:03:08.541Z,14.07
2022-12-13T16:08:26.458Z,15.20
2022-12-13T16:13:37.023Z,16.73
2022-12-13T16:18:46.527Z,19.10
2022-12-13T16:23:54.472Z,19.00
2022-12-13T16:29:02.322Z,19.70
2022-12-13T16:34:11.213Z,20.83
2022-12-13T16:39:20.885Z,27.03
2022-12-13T16:44:32.298Z,27.93
2022-12-13T16:49:39.943Z,24.70
2022-12-13T16:54:49.001Z,21.73
2022-12-13T16:59:56.856Z,21.23
2022-12-13T17:05:06.447Z,20.57
2022-12-13T17:10:14.773Z,20.43
2022-12-13T17:15:22.626Z,23.03
2022-12-13T17:20:32.968Z,24.60
2022-12-13T17:25:41.103Z,23.93
2022-12-13T17:30:49.288Z,27.20
2022-12-13T17:36:03.461Z,29.27
2022-12-13T17:41:11.142Z,31.33
2022-12-13T17:46:19.616Z,28.13
2022-12-13T17:51:27.190Z,28.27
2022-12-13T17:56:35.087Z,31.80
2022-12-13T18:01:44.449Z,30.57
2022-12-13T18:06:53.287Z,27.53
2022-12-13T18:12:05.067Z,23.87
2022-12-13T18:17:12.675Z,23.83
2022-12-13T18:22:20.349Z,27.53
2022-12-13T18:27:28.336Z,26.93
2022-12-13T18:32:37.639Z,23.47
2022-12-13T18:37:45.427Z,26.47
2022-12-13T18:42:54.637Z,21.20
2022-12-13T18:48:04.108Z,20.40
2022-12-13T18:53:12.939Z,21.63
2022-12-13T18:58:21.072Z,19.40
2022-12-13T19:03:30.139Z,26.37
2022-12-13T19:08:40.296Z,27.07
2022-12-13T19:13:50.117Z,29.13
2022-12-13T19:19:01.504Z,25.07
2022-12-13T19:24:11.278Z,26.87
2022-12-13T19:29:22.378Z,28.23
2022-12-13T19:34:32.207Z,31.03
2022-12-13T19:39:40.983Z,28.53
2022-12-13T19:44:49.053Z,26.83
2022-12-13T19:49:57.890Z,27.43
2022-12-13T19:55:06.472Z,29.50
2022-12-13T20:00:15.320Z,29.47
2022-12-13T20:05:23.625Z,35.23
2022-12-13T20:10:34.219Z,41.83
2022-12-13T20:15:50.023Z,29.23
2022-12-13T20:21:12.439Z,27.57
2022-12-13T20:26:26.401Z,26.50
2022-12-13T20:31:35.364Z,32.33
2022-12-13T20:36:43.379Z,26.27
2022-12-13T20:41:51.303Z,28.77
2022-12-13T20:46:59.353Z,26.03
2022-12-13T20:52:06.878Z,25.97
2022-12-13T20:57:15.214Z,23.47
2022-12-13T21:02:23.798Z,25.17
2022-12-13T21:07:51.150Z,24.83
2022-12-13T21:13:00.504Z,23.87
2022-12-13T21:18:08.015Z,24.77
2022-12-13T21:23:15.514Z,29.33
2022-12-13T21:28:26.814Z,31.03
2022-12-13T21:33:35.162Z,32.57
2022-12-13T21:38:43.047Z,38.73
2022-12-13T21:43:50.862Z,47.17
2022-12-13T21:48:59.874Z,43.50
2022-12-13T21:54:07.769Z,41.83
2022-12-13T21:59:23.195Z,37.23
2022-12-13T22:04:30.740Z,34.67
2022-12-13T22:09:38.467Z,31.70
2022-12-13T22:14:47.083Z,31.00
2022-12-13T22:19:54.735Z,34.13
2022-12-13T22:25:02.364Z,33.93
2022-12-13T22:30:10.645Z,35.17
2022-12-13T22:35:18.063Z,35.57
2022-12-13T22:40:27.252Z,35.00
2022-12-13T22:45:34.716Z,35.77
2022-12-13T22:50:42.188Z,39.70
2022-12-13T22:55:49.830Z,36.37
2022-12-13T23:00:57.323Z,34.67
2022-12-13T23:06:10.406Z,35.87
2022-12-13T23:11:37.175Z,35.30
2022-12-13T23:16:47.178Z,30.73
2022-12-13T23:21:55.771Z,30.07
2022-12-13T23:27:03.830Z,29.57
2022-12-13T23:32:11.744Z,28.37
2022-12-13T23:37:20.563Z,29.93
2022-12-13T23:42:31.407Z,29.53
2022-12-13T23:47:41.656Z,29.53
2022-12-13T23:52:50.021Z,30.57
2022-12-13T23:57:57.470Z,33.23
